Startline

Dinosaur Valley Half Marathon

Drumheller, AB - 12 septembre 2021

Épreuve Rang Temps officiel Dossard Nom Division Rang/sexe Rang/division Puce
10K 1/50 0:36:43 361 ALBANO, Ryan M3039 1/17 1/6 0:36:43
10K 2/50 0:48:44 358 LINARES, Luisa F2029 1/33 1/4 0:48:37
10K 3/50 0:49:12 314 EDDY, Eli M-U20 2/17 1/1 0:49:08
10K 4/50 0:49:35 305 BERRIGAN, Patrick M3039 3/17 2/6 0:49:33
10K 5/50 0:52:52 356 SUZANSKI, Jessica F3039 2/33 1/9 0:52:49
10K 6/50 0:52:57 330 MOODY, Joanne F5059 3/33 1/6 0:52:51
10K 7/50 0:54:07 360 DOUCETTE, Eric M4049 4/17 1/3 0:54:04
10K 8/50 0:54:47 302 ARAYA, Rene M4049 5/17 2/3 0:54:45
10K 9/50 0:55:28 333 OLESEN, Jill F4049 4/33 1/10 0:55:16
10K 10/50 0:56:06 342 STUCKKY, Melissa F3039 5/33 2/9 0:56:04
10K 11/50 0:56:26 338 STARGER, Ken M7079 6/17 1/1 0:56:24
10K 12/50 0:57:23 306 BLAESER, Wendy F4049 6/33 2/10 0:57:20
10K 13/50 0:57:24 354 REINHART, Jaymie Kristy F3039 7/33 3/9 0:57:21
10K 14/50 1:00:03 312 DE BRUIJN, Theo M6069 7/17 1/2 0:58:09
10K 15/50 1:00:20 334 PERCY, Trent M6069 8/17 2/2 1:00:17
10K 16/50 1:00:35 336 REINSON, Elvie F4049 8/33 3/10 1:00:31
10K 17/50 1:00:38 346 WILSON, Fiona F4049 9/33 4/10 1:00:30
10K 18/50 1:00:49 359 CLARK, Mike M5059 9/17 1/3 1:00:42
10K 19/50 1:00:51 329 MOLZAHN, Jonathan M4049 10/17 3/3 1:00:47
10K 20/50 1:01:45 343 VANDERKOP, Perry M5059 11/17 2/3 1:01:40
10K 21/50 1:02:47 309 BUCKINGHAM, Philip M3039 12/17 3/6 1:02:27
10K 22/50 1:02:48 332 NELMS, Michelle F3039 10/33 4/9 1:02:29
10K 23/50 1:04:30 362 GALESKI, Rochelle F4049 11/33 5/10 0:49:41
10K 24/50 1:04:37 355 SAGAON, Victor M2029 13/17 1/1 1:04:35
10K 25/50 1:04:46 311 CHERYL, Steil F5059 12/33 2/6 1:04:38
10K 26/50 1:05:25 352 DEWAR, Erin F3039 13/33 5/9 1:05:18
10K 27/50 1:06:03 363 MOMY, Kate F4049 14/33 6/10 1:05:58
10K 28/50 1:06:40 301 ALLAWAY, Jennifer F5059 15/33 3/6 1:06:35
10K 29/50 1:07:56 345 WIART, Nicole F4049 16/33 7/10 1:07:52
10K 30/50 1:07:56 320 GRIDLEY, Alenda F4049 17/33 8/10 1:07:51
10K 31/50 1:08:29 337 SNOW, Katt F2029 18/33 2/4 1:08:28
10K 32/50 1:09:11 350 BOSTOCK, Chad M3039 14/17 4/6 1:09:05
10K 33/50 1:10:16 317 GIBSON, Jennifer F3039 19/33 6/9 1:10:11
10K 34/50 1:10:32 353 MCAULEY, Jenessa F3039 20/33 7/9 1:10:25
10K 35/50 1:14:29 313 DECK, Sarah F4049 21/33 9/10 1:14:20
10K 36/50 1:14:29 335 QUARONI, Janet F3039 22/33 8/9 1:14:20
10K 37/50 1:21:34 339 STEWART, Bev F5059 23/33 4/6 1:21:24
10K 38/50 1:21:34 341 STEWART, Kallie F2029 24/33 3/4 1:21:24
10K 39/50 1:21:34 340 STEWART, Claire F2029 25/33 4/4 1:21:24
10K 40/50 1:26:05 324 KULBABA, Steve M3039 15/17 5/6 1:25:50
10K 41/50 1:26:06 323 KULBABA, Katharine F3039 26/33 9/9 1:25:50
10K 42/50 1:27:43 331 MORRISON, Lil F7079 27/33 1/1 1:27:41
10K 43/50 1:38:32 308 BOLIN, Laurie F6069 28/33 1/3 1:38:25
10K 44/50 1:38:32 307 BOLIN, Duane M5059 16/17 3/3 1:38:23
10K 45/50 1:45:59 328 MAZZOCCHI, Derek M3039 17/17 6/6 1:45:44
10K 46/50 1:46:03 304 BARICH, Jessica F4049 29/33 10/10 1:45:49
10K 47/50 1:57:56 318 GODDARD, Janice F6069 30/33 2/3 10:42:01
10K 48/50 1:57:57 348 ZWIERKOWSKI, Barbara F6069 31/33 3/3 1:57:45
10K 49/50 2:07:17 357 WADE, Ann F5059 32/33 5/6 2:07:07
10K 50/50 2:07:18 351 DEBONA, Audrey F5059 33/33 6/6 2:07:08